Time;durP1;ratioP1;P1;durP2;ratioP2;P2;SDS_P1;SDS_P2;PMS_P1;PMS_P2;Temp;Humidity;BMP_temperature;BMP_pressure;BME280_temperature;BME280_humidity;BME280_pressure;Samples;Min_cycle;Max_cycle;Signal;HPM_P1;HPM_P2
2023/07/20 00:00:26;;;;;;;7.45;4.93;;;;;;;29.64;45.56;99557.16;4897447;29;20052;-70
2023/07/20 00:02:52;;;;;;;6.43;4.32;;;;;;;29.63;45.40;99551.91;4896685;29;20036;-71
2023/07/20 00:05:18;;;;;;;6.93;4.55;;;;;;;29.63;45.58;99551.91;4896123;29;20099;-71
2023/07/20 00:07:44;;;;;;;8.80;5.10;;;;;;;29.59;45.74;99554.06;4897402;29;20393;-71
2023/07/20 00:10:09;;;;;;;8.75;5.05;;;;;;;29.59;45.74;99549.50;4895429;29;20085;-71
2023/07/20 00:12:35;;;;;;;7.38;5.03;;;;;;;29.58;45.46;99547.00;4902876;29;20036;-71
2023/07/20 00:15:01;;;;;;;6.63;4.20;;;;;;;29.56;45.85;99548.97;4897323;29;20556;-71
2023/07/20 00:17:26;;;;;;;6.15;4.25;;;;;;;29.55;45.57;99552.66;4896794;29;20025;-69
2023/07/20 00:19:51;;;;;;;7.20;5.20;;;;;;;29.54;45.77;99546.41;4897108;29;20059;-72
2023/07/20 00:22:17;;;;;;;7.10;4.60;;;;;;;29.54;45.96;99550.97;4896981;29;20456;-71
2023/07/20 00:24:42;;;;;;;7.22;4.88;;;;;;;29.54;45.62;99545.59;4896837;29;20028;-71
2023/07/20 00:27:08;;;;;;;7.38;4.57;;;;;;;29.54;45.51;99548.28;4892761;29;20060;-70
2023/07/20 00:29:35;;;;;;;8.32;4.85;;;;;;;29.53;45.75;99546.59;4895632;29;20048;-72
2023/07/20 00:32:00;;;;;;;7.28;4.43;;;;;;;29.51;45.53;99540.50;4895608;29;20071;-72
2023/07/20 00:34:26;;;;;;;8.75;5.10;;;;;;;29.51;45.86;99533.28;4892644;29;20056;-71
2023/07/20 00:36:51;;;;;;;6.32;4.50;;;;;;;29.51;45.73;99530.59;4896994;29;20029;-71
2023/07/20 00:39:17;;;;;;;7.07;4.70;;;;;;;29.50;45.61;99531.59;4896983;29;20402;-70
2023/07/20 00:41:42;;;;;;;7.05;4.80;;;;;;;29.52;45.47;99531.44;4896781;29;20104;-72
2023/07/20 00:44:07;;;;;;;6.88;4.78;;;;;;;29.50;45.71;99528.06;4896489;29;20111;-71
2023/07/20 00:46:33;;;;;;;7.72;5.20;;;;;;;29.50;45.98;99517.31;4893159;29;20478;-71
2023/07/20 00:48:59;;;;;;;6.70;4.70;;;;;;;29.48;45.66;99514.75;4895816;29;20056;-70
2023/07/20 00:51:26;;;;;;;8.48;5.20;;;;;;;29.46;45.91;99512.19;4896628;29;20028;-71
2023/07/20 00:53:53;;;;;;;9.10;5.28;;;;;;;29.46;46.15;99514.03;4896561;29;20028;-71
2023/07/20 00:56:19;;;;;;;6.28;4.57;;;;;;;29.44;45.83;99511.50;4896695;29;20025;-72
2023/07/20 00:58:45;;;;;;;8.25;4.43;;;;;;;29.44;45.68;99514.16;4896749;29;20486;-71
2023/07/20 01:01:10;;;;;;;7.93;5.05;;;;;;;29.44;45.86;99514.16;4896389;29;20458;-71
2023/07/20 01:03:37;;;;;;;7.75;4.60;;;;;;;29.44;45.97;99507.97;4896357;29;20067;-71
2023/07/20 01:06:17;;;;;;;6.30;4.60;;;;;;;29.42;45.75;99504.56;4896823;29;20400;-71
2023/07/20 01:09:22;;;;;;;6.43;4.40;;;;;;;29.41;45.68;99506.41;4896384;29;20081;-71
2023/07/20 01:12:09;;;;;;;7.53;4.85;;;;;;;29.41;45.76;99503.72;4894561;29;20029;-71
2023/07/20 01:14:36;;;;;;;7.03;4.43;;;;;;;29.40;46.09;99491.28;4891597;29;20109;-70
2023/07/20 01:17:03;;;;;;;6.25;4.65;;;;;;;29.39;45.99;99492.28;4896472;29;20469;-71
2023/07/20 01:19:29;;;;;;;6.25;4.13;;;;;;;29.39;46.09;99489.56;4896602;29;20541;-71
2023/07/20 01:22:20;;;;;;;8.43;4.82;;;;;;;29.38;45.79;99487.91;4896462;29;20063;-70
2023/07/20 01:25:16;;;;;;;7.75;4.53;;;;;;;29.37;46.04;99488.91;4895779;29;20035;-71
2023/07/20 01:28:19;;;;;;;7.50;4.53;;;;;;;29.36;45.93;99484.53;4891140;29;20033;-71
2023/07/20 01:30:50;;;;;;;8.93;4.95;;;;;;;29.34;45.77;99481.97;4892279;29;20025;-71
2023/07/20 01:33:17;;;;;;;7.72;4.75;;;;;;;29.35;45.94;99483.66;4896430;29;20056;-71
2023/07/20 01:35:44;;;;;;;5.88;4.35;;;;;;;29.35;46.23;99482.84;4896651;29;20043;-71
2023/07/20 01:38:12;;;;;;;6.88;4.53;;;;;;;29.31;45.97;99482.28;4896596;29;20521;-70
2023/07/20 01:40:38;;;;;;;6.70;4.35;;;;;;;29.32;46.21;99472.38;4896565;29;20048;-71
2023/07/20 01:43:04;;;;;;;8.18;4.60;;;;;;;29.31;46.15;99476.06;4895360;29;20024;-71
2023/07/20 01:45:29;;;;;;;6.60;4.25;;;;;;;29.29;46.22;99483.44;4896189;29;20512;-70
2023/07/20 01:47:54;;;;;;;6.47;4.57;;;;;;;29.28;46.11;99476.34;4896230;29;20104;-71
2023/07/20 01:50:20;;;;;;;7.40;4.28;;;;;;;29.28;45.93;99469.13;4896403;29;20025;-71
2023/07/20 01:52:45;;;;;;;6.28;4.18;;;;;;;29.27;46.04;99467.44;4896228;29;20103;-70
2023/07/20 01:55:10;;;;;;;6.78;4.05;;;;;;;29.26;46.28;99463.06;4895937;29;20033;-71
2023/07/20 01:57:36;;;;;;;6.65;4.20;;;;;;;29.27;46.17;99461.22;4899219;29;20115;-71
2023/07/20 02:00:02;;;;;;;6.15;4.78;;;;;;;29.27;46.31;99463.91;4899482;29;20025;-71
2023/07/20 02:02:30;;;;;;;6.60;4.20;;;;;;;29.23;46.32;99457.16;4899778;29;20533;-70
2023/07/20 02:04:56;;;;;;;7.22;4.30;;;;;;;29.23;46.32;99452.59;4899889;29;20040;-71
2023/07/20 02:07:21;;;;;;;6.22;4.25;;;;;;;29.21;46.30;99460.81;4899833;29;20013;-71
2023/07/20 02:09:47;;;;;;;6.68;4.60;;;;;;;29.20;46.29;99452.91;4899324;29;20056;-71
2023/07/20 02:12:12;;;;;;;7.20;4.20;;;;;;;29.21;46.13;99450.06;4898859;29;20383;-71
2023/07/20 02:14:38;;;;;;;6.75;4.03;;;;;;;29.18;46.13;99444.13;4898934;29;20035;-70
2023/07/20 02:17:04;;;;;;;6.78;3.97;;;;;;;29.20;46.38;99448.38;4899684;29;20037;-71
2023/07/20 02:19:30;;;;;;;7.22;4.60;;;;;;;29.17;46.14;99454.06;4899468;29;20028;-72
2023/07/20 02:21:55;;;;;;;5.57;4.10;;;;;;;29.16;46.39;99449.69;4899348;29;20025;-71
2023/07/20 02:24:21;;;;;;;5.75;4.05;;;;;;;29.16;46.20;99446.13;4899437;29;20042;-71
2023/07/20 02:26:46;;;;;;;5.70;4.30;;;;;;;29.14;46.18;99432.84;4895375;29;20056;-71
2023/07/20 02:29:12;;;;;;;5.80;4.28;;;;;;;29.13;46.14;99441.91;4898955;29;20112;-71
2023/07/20 02:31:40;;;;;;;8.25;4.40;;;;;;;29.11;46.18;99430.47;4899089;29;20055;-71
2023/07/20 02:34:06;;;;;;;6.30;4.05;;;;;;;29.11;46.32;99435.84;4899030;29;20084;-70
2023/07/20 02:36:34;;;;;;;5.95;3.85;;;;;;;29.11;46.23;99441.22;4899224;29;20032;-70
2023/07/20 02:39:02;;;;;;;6.80;4.15;;;;;;;29.11;46.44;99437.66;4895679;29;20029;-71
2023/07/20 02:41:27;;;;;;;6.82;3.97;;;;;;;29.11;46.41;99438.53;4898839;29;20029;-71
2023/07/20 02:43:52;;;;;;;6.07;4.05;;;;;;;29.08;46.59;99438.81;4898993;29;20454;-72
2023/07/20 02:46:18;;;;;;;6.32;4.30;;;;;;;29.07;46.56;99421.88;4894644;29;20052;-71
2023/07/20 02:48:43;;;;;;;6.13;3.65;;;;;;;29.10;46.38;99431.44;4899032;29;20047;-72
2023/07/20 02:51:09;;;;;;;6.72;4.15;;;;;;;29.08;46.22;99433.44;4899048;29;20029;-71
2023/07/20 02:53:34;;;;;;;7.03;4.63;;;;;;;29.07;46.61;99432.63;4898469;29;20477;-71
2023/07/20 02:55:59;;;;;;;6.43;4.40;;;;;;;29.05;46.28;99434.59;4898650;29;20048;-71
2023/07/20 02:58:25;;;;;;;6.13;3.90;;;;;;;29.03;46.42;99433.03;4898942;29;20052;-69
2023/07/20 03:00:50;;;;;;;6.15;4.05;;;;;;;29.02;46.28;99417.91;4898741;29;20159;-71
2023/07/20 03:03:16;;;;;;;6.38;3.70;;;;;;;29.04;46.46;99421.28;4898743;29;20029;-71
2023/07/20 03:05:42;;;;;;;6.43;4.05;;;;;;;29.01;46.29;99426.97;4898642;29;20438;-71
2023/07/20 03:08:07;;;;;;;6.35;3.97;;;;;;;29.00;46.68;99426.13;4898282;29;20043;-71
2023/07/20 03:10:38;;;;;;;8.00;4.50;;;;;;;29.01;46.36;99426.97;4898225;29;20186;-71
2023/07/20 03:13:03;;;;;;;6.00;3.90;;;;;;;28.98;46.73;99417.38;4898593;29;20113;-71
2023/07/20 03:15:29;;;;;;;6.50;4.35;;;;;;;28.99;46.60;99419.06;4897335;29;20036;-70
2023/07/20 03:17:54;;;;;;;5.60;3.63;;;;;;;29.00;46.41;99419.91;4898633;29;20029;-71
2023/07/20 03:20:20;;;;;;;6.50;3.80;;;;;;;28.96;46.64;99413.13;4898922;29;20179;-70
2023/07/20 03:22:45;;;;;;;6.97;4.15;;;;;;;28.97;46.34;99409.44;4898561;29;20092;-72
2023/07/20 03:25:11;;;;;;;5.78;3.70;;;;;;;28.94;46.76;99416.81;4898281;29;20108;-70
2023/07/20 03:27:36;;;;;;;6.47;4.15;;;;;;;28.95;46.71;99406.91;4894661;29;20132;-70
2023/07/20 03:30:02;;;;;;;6.28;4.00;;;;;;;28.93;46.63;99404.38;4893207;29;20111;-71
2023/07/20 03:32:27;;;;;;;6.10;4.10;;;;;;;28.95;46.51;99396.16;4880292;29;20027;-70
2023/07/20 03:34:53;;;;;;;5.80;3.90;;;;;;;28.94;46.40;99406.06;4898304;29;20068;-72
2023/07/20 03:37:18;;;;;;;5.38;3.88;;;;;;;28.94;46.40;99400.72;4898359;29;20032;-70
2023/07/20 03:39:44;;;;;;;5.93;3.95;;;;;;;28.91;46.40;99390.25;4897967;29;20028;-71
2023/07/20 03:42:09;;;;;;;6.25;4.10;;;;;;;28.89;46.35;99389.56;4898185;29;20028;-71
2023/07/20 03:44:34;;;;;;;5.70;3.85;;;;;;;28.89;46.50;99386.88;4898374;29;20589;-71
2023/07/20 03:47:00;;;;;;;6.90;3.88;;;;;;;28.90;46.40;99387.72;4898270;29;20029;-72
2023/07/20 03:49:26;;;;;;;5.50;3.78;;;;;;;28.88;46.36;99390.56;4898311;29;20556;-71
2023/07/20 03:51:51;;;;;;;5.15;3.58;;;;;;;28.87;46.42;99382.63;4898128;29;20489;-70
2023/07/20 03:54:16;;;;;;;6.38;4.10;;;;;;;28.89;46.32;99384.19;4897569;29;20033;-71
2023/07/20 03:56:42;;;;;;;5.22;3.30;;;;;;;28.88;46.72;99387.88;4898013;29;20473;-72
2023/07/20 03:59:07;;;;;;;6.20;3.65;;;;;;;28.87;46.39;99393.38;4892638;29;20100;-71
2023/07/20 04:01:36;;;;;;;5.57;3.55;;;;;;;28.85;46.40;99385.44;4897807;29;20432;-69
2023/07/20 04:04:04;;;;;;;5.60;3.80;;;;;;;28.83;46.75;99382.06;4897814;29;20028;-71
2023/07/20 04:06:29;;;;;;;6.03;4.00;;;;;;;28.84;46.68;99389.13;4897850;29;20028;-70
2023/07/20 04:08:55;;;;;;;5.80;3.75;;;;;;;28.84;46.82;99394.50;4897218;29;20509;-70
2023/07/20 04:11:20;;;;;;;5.57;3.88;;;;;;;28.84;46.48;99394.50;4897557;29;20024;-71
2023/07/20 04:13:45;;;;;;;5.88;4.03;;;;;;;28.83;46.56;99392.81;4897695;29;20133;-71
2023/07/20 04:16:11;;;;;;;5.57;3.45;;;;;;;28.82;46.34;99393.81;4897549;29;20111;-71
2023/07/20 04:18:36;;;;;;;6.63;3.90;;;;;;;28.81;46.60;99389.44;4892807;29;20080;-71
2023/07/20 04:21:02;;;;;;;7.00;4.03;;;;;;;28.83;46.81;99391.94;4897757;29;20044;-71
2023/07/20 04:23:27;;;;;;;5.72;3.90;;;;;;;28.78;46.82;99379.81;4897221;29;20029;-72
2023/07/20 04:25:52;;;;;;;5.93;3.92;;;;;;;28.79;46.31;99380.66;4897221;29;20106;-71
2023/07/20 04:28:18;;;;;;;5.53;3.53;;;;;;;28.78;46.43;99371.78;4886784;29;20037;-71
2023/07/20 04:30:43;;;;;;;5.65;3.50;;;;;;;28.78;46.84;99373.59;4897376;29;20035;-70
2023/07/20 04:33:09;;;;;;;7.30;4.00;;;;;;;28.75;46.48;99372.06;4891249;29;20040;-71
2023/07/20 04:35:54;;;;;;;5.88;3.63;;;;;;;28.75;46.63;99373.88;4897780;29;20132;-71
2023/07/20 04:38:20;;;;;;;5.28;3.78;;;;;;;28.74;46.86;99370.38;4896705;29;20031;-71
2023/07/20 04:40:48;;;;;;;5.65;3.75;;;;;;;28.76;46.60;99370.22;4882460;29;20044;-70
2023/07/20 04:43:14;;;;;;;5.78;3.88;;;;;;;28.73;46.58;99370.50;4897163;29;20149;-70
2023/07/20 04:45:40;;;;;;;6.07;3.75;;;;;;;28.71;46.57;99376.00;4897186;29;20031;-70
2023/07/20 04:48:10;;;;;;;5.03;3.30;;;;;;;28.72;46.67;99364.31;4896938;29;20095;-70
2023/07/20 04:50:35;;;;;;;5.25;3.42;;;;;;;28.73;46.79;99370.50;4897431;29;20367;-69
2023/07/20 04:53:02;;;;;;;6.15;3.85;;;;;;;28.73;46.63;99359.75;4896480;29;20061;-70
2023/07/20 04:55:28;;;;;;;5.03;3.17;;;;;;;28.70;46.87;99365.44;4890111;29;20405;-70
2023/07/20 04:57:53;;;;;;;5.45;3.80;;;;;;;28.70;46.76;99360.06;4895944;29;20020;-71
2023/07/20 05:00:19;;;;;;;6.00;3.70;;;;;;;28.68;46.90;99366.41;4878733;29;20417;-70
2023/07/20 05:02:47;;;;;;;5.95;3.50;;;;;;;28.68;46.58;99361.03;4896749;29;20056;-71
2023/07/20 05:05:12;;;;;;;5.07;3.17;;;;;;;28.68;46.87;99357.53;4897038;29;20032;-70
2023/07/20 05:07:38;;;;;;;5.85;3.80;;;;;;;28.67;46.67;99361.22;4896466;29;20033;-70
2023/07/20 05:10:04;;;;;;;5.28;2.90;;;;;;;28.68;46.48;99363.72;4897130;29;20508;-70
2023/07/20 05:12:29;;;;;;;5.38;3.50;;;;;;;28.70;46.36;99355.53;4896755;29;20024;-71
2023/07/20 05:14:55;;;;;;;4.78;3.15;;;;;;;28.70;46.41;99354.72;4896949;29;20032;-71
2023/07/20 05:17:20;;;;;;;4.57;3.00;;;;;;;28.68;46.82;99358.34;4896700;29;20476;-71
2023/07/20 05:19:45;;;;;;;5.03;3.30;;;;;;;28.70;46.80;99354.72;4896914;29;20025;-71
2023/07/20 05:22:14;;;;;;;4.45;2.80;;;;;;;28.69;46.78;99348.47;4881913;29;20039;-71
2023/07/20 05:24:39;;;;;;;5.05;3.22;;;;;;;28.71;46.64;99354.53;4896851;29;20044;-71
2023/07/20 05:27:05;;;;;;;4.18;2.80;;;;;;;28.69;46.41;99353.84;4896811;29;20029;-71
2023/07/20 05:29:31;;;;;;;3.45;2.45;;;;;;;28.72;46.33;99355.41;4886699;29;20048;-71
2023/07/20 05:31:57;;;;;;;5.03;3.10;;;;;;;28.71;46.56;99346.47;4900761;29;20087;-70
2023/07/20 05:34:22;;;;;;;4.72;2.95;;;;;;;28.73;46.26;99349.03;4900696;29;20497;-71
2023/07/20 05:36:48;;;;;;;5.80;3.47;;;;;;;28.72;46.35;99350.03;4900326;29;20052;-72
2023/07/20 05:39:13;;;;;;;3.80;2.58;;;;;;;28.75;46.62;99347.88;4900517;29;20079;-71
2023/07/20 05:41:39;;;;;;;4.90;2.83;;;;;;;28.75;46.47;99352.41;4900443;29;20036;-71
2023/07/20 05:44:04;;;;;;;3.92;2.65;;;;;;;28.75;46.55;99355.09;4900362;29;20039;-70
2023/07/20 05:46:29;;;;;;;5.43;3.20;;;;;;;28.74;46.33;99356.09;4900366;29;20449;-72
2023/07/20 05:48:55;;;;;;;5.15;3.10;;;;;;;28.75;46.31;99363.13;4897991;29;20067;-71
2023/07/20 05:51:20;;;;;;;4.47;2.88;;;;;;;28.77;46.42;99358.50;4900068;29;20071;-69
2023/07/20 05:53:45;;;;;;;4.15;2.58;;;;;;;28.78;46.52;99357.50;4900132;29;20032;-70
2023/07/20 05:56:11;;;;;;;5.00;2.45;;;;;;;28.77;46.04;99350.44;4900009;29;20516;-70
2023/07/20 05:58:36;;;;;;;4.28;2.40;;;;;;;28.77;46.43;99350.44;4899903;29;20106;-71
2023/07/20 06:01:05;;;;;;;5.60;3.00;;;;;;;28.77;46.19;99345.06;4900047;29;20024;-70
2023/07/20 06:03:31;;;;;;;4.25;2.58;;;;;;;28.80;46.20;99350.13;4899807;29;20497;-71
2023/07/20 06:06:01;;;;;;;3.58;2.67;;;;;;;28.78;45.96;99349.44;4899701;29;20037;-70
2023/07/20 06:08:31;;;;;;;3.88;2.40;;;;;;;28.80;46.15;99344.75;4899735;29;20100;-72
2023/07/20 06:10:56;;;;;;;4.18;2.30;;;;;;;28.80;46.48;99347.44;4898479;29;20028;-71
2023/07/20 06:13:22;;;;;;;4.65;2.40;;;;;;;28.80;46.20;99350.13;4897624;29;20017;-70
2023/07/20 06:15:48;;;;;;;4.60;2.33;;;;;;;28.80;46.13;99347.44;4899436;29;20036;-69
2023/07/20 06:18:13;;;;;;;4.13;2.50;;;;;;;28.82;45.99;99345.47;4899622;29;20040;-71
2023/07/20 06:20:39;;;;;;;5.22;2.78;;;;;;;28.82;46.22;99348.16;4899295;29;20024;-71
2023/07/20 06:23:05;;;;;;;3.83;2.53;;;;;;;28.83;45.99;99349.84;4899667;29;20033;-70
2023/07/20 06:25:30;;;;;;;5.07;2.47;;;;;;;28.83;46.20;99349.84;4899360;29;20119;-71
2023/07/20 06:27:56;;;;;;;3.90;2.17;;;;;;;28.83;46.23;99347.16;4899502;29;20028;-70
2023/07/20 06:30:22;;;;;;;3.80;2.33;;;;;;;28.85;46.24;99347.84;4899391;29;20036;-71
2023/07/20 06:32:47;;;;;;;3.92;2.30;;;;;;;28.81;46.14;99341.94;4899181;29;20021;-70
2023/07/20 06:35:13;;;;;;;3.35;2.08;;;;;;;28.84;45.96;99346.16;4898405;29;20590;-71
2023/07/20 06:37:39;;;;;;;3.78;2.20;;;;;;;28.82;46.14;99348.16;4889899;29;20076;-69
2023/07/20 06:40:05;;;;;;;4.20;2.22;;;;;;;28.83;46.16;99349.84;4897218;29;20025;-70
2023/07/20 06:42:31;;;;;;;3.42;2.13;;;;;;;28.85;46.18;99347.84;4897744;29;20032;-70
2023/07/20 06:44:57;;;;;;;4.10;2.15;;;;;;;28.85;46.15;99347.84;4889501;29;20050;-70
2023/07/20 06:47:22;;;;;;;4.10;2.10;;;;;;;28.86;45.72;99354.94;4895552;29;20029;-70
2023/07/20 06:49:48;;;;;;;3.65;2.10;;;;;;;28.86;46.11;99348.69;4897557;29;20029;-70
2023/07/20 06:52:13;;;;;;;4.35;2.08;;;;;;;28.85;45.85;99342.47;4891391;29;20032;-70
2023/07/20 06:54:39;;;;;;;3.00;1.95;;;;;;;28.86;45.93;99352.25;4893775;29;20036;-71
2023/07/20 06:57:05;;;;;;;4.15;2.20;;;;;;;28.87;46.01;99351.28;4897284;29;20028;-74
2023/07/20 06:59:30;;;;;;;3.28;2.03;;;;;;;28.84;45.76;99340.78;4887181;29;20032;-71
2023/07/20 07:01:56;;;;;;;3.75;2.08;;;;;;;28.84;45.98;99335.41;4899017;29;20470;-70
2023/07/20 07:04:21;;;;;;;4.15;2.33;;;;;;;28.85;45.55;99342.47;4898420;29;20485;-70
2023/07/20 07:06:47;;;;;;;3.63;2.10;;;;;;;28.85;45.94;99336.28;4898648;29;20059;-71
2023/07/20 07:09:12;;;;;;;3.40;1.90;;;;;;;28.82;45.96;99337.41;4898538;29;20051;-71
2023/07/20 07:11:37;;;;;;;4.43;1.88;;;;;;;28.83;45.74;99333.72;4898439;29;20039;-72
2023/07/20 07:14:03;;;;;;;3.65;2.10;;;;;;;28.83;46.14;99330.19;4898507;29;20028;-71
2023/07/20 07:16:28;;;;;;;4.05;2.08;;;;;;;28.83;45.80;99328.34;4898826;29;20172;-71
2023/07/20 07:18:54;;;;;;;3.97;2.15;;;;;;;28.81;45.96;99331.19;4897185;29;20064;-70
2023/07/20 07:21:19;;;;;;;4.47;2.35;;;;;;;28.82;45.71;99337.41;4893759;29;20033;-70
2023/07/20 07:23:45;;;;;;;3.47;2.08;;;;;;;28.83;46.17;99336.41;4898684;29;20097;-71
2023/07/20 07:26:11;;;;;;;3.60;2.00;;;;;;;28.83;45.74;99339.09;4898290;29;20032;-71
2023/07/20 07:28:36;;;;;;;3.85;2.13;;;;;;;28.83;45.69;99336.41;4898049;29;20056;-69
2023/07/20 07:31:05;;;;;;;4.43;2.15;;;;;;;28.83;45.84;99330.19;4897955;29;20454;-71
2023/07/20 07:33:31;;;;;;;4.80;2.42;;;;;;;28.84;45.77;99338.09;4891151;29;20103;-71
2023/07/20 07:35:57;;;;;;;4.13;2.35;;;;;;;28.84;46.10;99340.78;4897870;29;20115;-70
2023/07/20 07:38:22;;;;;;;4.40;2.00;;;;;;;28.84;45.83;99339.94;4892502;29;20025;-70
2023/07/20 07:40:48;;;;;;;3.08;1.90;;;;;;;28.84;45.71;99343.47;4885806;29;20021;-69
2023/07/20 07:43:13;;;;;;;3.72;2.15;;;;;;;28.82;45.79;99337.41;4898268;29;20036;-69
2023/07/20 07:45:40;;;;;;;3.35;2.20;;;;;;;28.83;45.96;99328.34;4898040;29;20024;-69
2023/07/20 07:48:06;;;;;;;4.00;2.22;;;;;;;28.84;45.95;99332.72;4893735;29;20108;-69
2023/07/20 07:50:32;;;;;;;4.88;2.97;;;;;;;28.85;45.66;99339.78;4883583;29;20115;-70
2023/07/20 07:52:57;;;;;;;5.05;2.70;;;;;;;28.86;46.08;99333.44;4897510;29;20039;-69
2023/07/20 07:55:24;;;;;;;3.65;2.38;;;;;;;28.84;45.89;99335.41;4895826;29;20409;-70
2023/07/20 07:57:49;;;;;;;3.33;2.08;;;;;;;28.84;46.10;99330.03;4897863;29;20115;-70
2023/07/20 08:00:18;;;;;;;4.95;2.40;;;;;;;28.84;45.76;99330.03;4897352;29;20473;-70
2023/07/20 08:02:46;;;;;;;4.15;2.40;;;;;;;28.85;45.65;99326.34;4889892;29;20025;-71
2023/07/20 08:05:12;;;;;;;3.60;2.25;;;;;;;28.84;46.00;99330.03;4897692;29;20040;-69
2023/07/20 08:07:37;;;;;;;3.80;2.42;;;;;;;28.85;45.77;99323.66;4894715;29;20104;-70
2023/07/20 08:10:03;;;;;;;4.10;2.30;;;;;;;28.86;45.60;99322.69;4885950;29;20036;-70
2023/07/20 08:12:29;;;;;;;3.53;2.10;;;;;;;28.87;45.67;99319.06;4897721;29;20496;-70
2023/07/20 08:14:54;;;;;;;3.40;2.13;;;;;;;28.87;46.03;99320.88;4897176;29;20092;-69
2023/07/20 08:17:20;;;;;;;3.00;2.00;;;;;;;28.88;45.77;99315.38;4897386;29;20089;-71
2023/07/20 08:19:46;;;;;;;3.22;1.83;;;;;;;28.91;45.80;99314.22;4897583;29;20021;-69
2023/07/20 08:22:12;;;;;;;5.10;2.20;;;;;;;28.91;45.56;99314.22;4897264;29;20226;-70
2023/07/20 08:24:41;;;;;;;3.65;2.20;;;;;;;28.91;45.85;99309.69;4897511;29;20132;-71
2023/07/20 08:27:07;;;;;;;3.55;1.88;;;;;;;28.91;45.86;99312.38;4897404;29;20115;-70
2023/07/20 08:29:32;;;;;;;3.65;2.05;;;;;;;28.93;45.86;99313.09;4896898;29;20036;-71
2023/07/20 08:31:57;;;;;;;3.88;1.98;;;;;;;28.94;45.92;99319.28;4897224;29;20028;-71
2023/07/20 08:34:23;;;;;;;4.30;2.30;;;;;;;28.96;45.56;99305.72;4897284;29;20031;-71
2023/07/20 08:36:48;;;;;;;4.30;2.05;;;;;;;28.96;45.97;99316.44;4897158;29;20033;-70
2023/07/20 08:39:13;;;;;;;4.60;2.08;;;;;;;28.97;45.84;99310.06;4897067;29;20152;-70
2023/07/20 08:41:40;;;;;;;3.17;1.90;;;;;;;28.97;45.44;99312.75;4897167;29;20028;-70
2023/07/20 08:44:06;;;;;;;4.30;1.95;;;;;;;28.98;45.91;99320.69;4896747;29;20382;-70
2023/07/20 08:46:34;;;;;;;3.70;2.00;;;;;;;28.99;45.87;99318.84;4897000;29;20028;-71
2023/07/20 08:49:02;;;;;;;4.35;2.00;;;;;;;29.00;45.72;99315.16;4894518;29;20024;-70
2023/07/20 08:51:28;;;;;;;3.10;2.20;;;;;;;28.99;45.75;99313.47;4888935;29;20032;-71
2023/07/20 08:53:53;;;;;;;4.22;2.17;;;;;;;29.00;45.88;99307.94;4897247;29;20489;-69
2023/07/20 08:56:21;;;;;;;4.30;2.17;;;;;;;29.01;45.45;99315.00;4896988;29;20063;-70
2023/07/20 08:58:47;;;;;;;3.75;2.05;;;;;;;29.03;45.82;99306.78;4896797;29;20389;-70
2023/07/20 09:01:14;;;;;;;4.30;2.15;;;;;;;29.00;45.66;99307.09;4897113;29;20123;-72
2023/07/20 09:03:40;;;;;;;3.80;2.10;;;;;;;29.02;45.71;99305.09;4896812;29;20055;-71
2023/07/20 09:06:05;;;;;;;5.05;2.05;;;;;;;29.03;45.47;99298.72;4896303;29;20486;-71
2023/07/20 09:08:31;;;;;;;4.57;2.10;;;;;;;29.03;45.61;99294.22;4889382;29;20163;-71
2023/07/20 09:10:57;;;;;;;4.13;2.00;;;;;;;29.05;45.64;99302.13;4895615;29;20173;-71
2023/07/20 09:13:25;;;;;;;3.88;2.00;;;;;;;29.05;45.73;99291.38;4896677;29;20020;-70
2023/07/20 09:15:54;;;;;;;4.97;2.20;;;;;;;29.04;45.54;99285.16;4897113;29;20025;-70
2023/07/20 09:18:28;;;;;;;3.97;2.15;;;;;;;29.05;45.46;99284.16;4896958;29;20048;-70
2023/07/20 09:21:02;;;;;;;5.22;2.72;;;;;;;29.05;45.34;99280.66;4896725;29;20104;-70
2023/07/20 09:23:32;;;;;;;3.67;1.73;;;;;;;29.07;45.61;99286.69;4896782;29;20099;-71
2023/07/20 09:25:58;;;;;;;3.90;2.38;;;;;;;29.08;45.48;99283.00;4894551;29;20036;-71
2023/07/20 09:28:24;;;;;;;3.00;1.88;;;;;;;29.07;45.47;99278.66;4886728;29;20128;-70
2023/07/20 09:30:49;;;;;;;3.85;2.13;;;;;;;29.08;45.60;99270.44;4894251;29;20103;-70
2023/07/20 09:33:21;;;;;;;4.10;2.25;;;;;;;29.08;45.08;99269.59;4889727;29;20033;-71
2023/07/20 09:35:47;;;;;;;3.70;2.00;;;;;;;29.11;45.58;99271.13;4896473;29;20032;-71
2023/07/20 09:38:14;;;;;;;4.47;2.33;;;;;;;29.12;45.21;99270.97;4890343;29;20031;-70
2023/07/20 09:40:40;;;;;;;3.33;1.80;;;;;;;29.13;45.24;99263.75;4888340;29;20024;-70
2023/07/20 09:43:08;;;;;;;3.80;2.03;;;;;;;29.13;44.88;99258.38;4896082;29;20378;-71
2023/07/20 09:45:36;;;;;;;4.38;2.35;;;;;;;29.13;45.09;99259.22;4896561;29;20045;-71
2023/07/20 09:48:08;;;;;;;3.28;1.75;;;;;;;29.14;45.51;99258.22;4896043;29;20036;-70
2023/07/20 09:50:39;;;;;;;4.20;1.95;;;;;;;29.13;45.37;99259.22;4896485;29;20020;-69
2023/07/20 09:53:05;;;;;;;4.70;1.77;;;;;;;29.16;45.31;99261.63;4896358;29;20084;-71
2023/07/20 09:55:32;;;;;;;3.38;1.70;;;;;;;29.18;45.50;99251.56;4896599;29;20025;-70
2023/07/20 09:57:59;;;;;;;3.00;1.60;;;;;;;29.19;45.35;99252.38;4895534;29;20460;-71
2023/07/20 10:00:24;;;;;;;2.53;1.23;;;;;;;29.19;45.14;99245.19;4890970;29;20505;-70
2023/07/20 10:02:51;;;;;;;4.40;2.20;;;;;;;29.20;45.52;99252.25;4895614;29;20028;-69
2023/07/20 10:05:18;;;;;;;3.22;2.05;;;;;;;29.21;45.43;99242.34;4896448;29;20041;-71
2023/07/20 10:07:47;;;;;;;3.83;2.20;;;;;;;29.19;45.55;99247.88;4896306;29;20489;-71
2023/07/20 10:10:16;;;;;;;3.47;1.80;;;;;;;29.21;45.48;99234.28;4896540;29;20033;-72
2023/07/20 10:12:42;;;;;;;3.70;1.92;;;;;;;29.21;45.10;99234.28;4895828;29;20457;-71
2023/07/20 10:15:29;;;;;;;3.47;1.52;;;;;;;29.23;45.28;99234.16;4896321;29;20036;-71
2023/07/20 10:18:03;;;;;;;5.25;2.15;;;;;;;29.24;45.18;99233.16;4898022;29;20485;-71
2023/07/20 10:20:29;;;;;;;3.78;1.70;;;;;;;29.24;45.15;99227.78;4899791;29;20029;-70
2023/07/20 10:22:57;;;;;;;3.47;1.70;;;;;;;29.25;45.32;99221.38;4899069;29;20031;-72
2023/07/20 10:25:23;;;;;;;2.75;1.75;;;;;;;29.26;45.04;99228.44;4899205;29;20366;-71
2023/07/20 10:27:49;;;;;;;4.15;2.25;;;;;;;29.26;45.32;99225.75;4899436;29;20025;-69
2023/07/20 10:30:15;;;;;;;3.15;1.60;;;;;;;29.27;45.40;99224.75;4899635;29;20021;-70
2023/07/20 10:32:42;;;;;;;3.60;1.90;;;;;;;29.27;45.53;99227.44;4895880;29;20025;-71
2023/07/20 10:35:15;;;;;;;4.22;2.20;;;;;;;29.28;44.96;99229.13;4897001;29;20040;-71
2023/07/20 10:37:54;;;;;;;3.33;1.90;;;;;;;29.28;45.03;99218.38;4899503;29;20052;-72
2023/07/20 10:40:32;;;;;;;5.18;1.83;;;;;;;29.29;45.30;99220.09;4898837;29;20043;-71
2023/07/20 10:42:59;;;;;;;3.67;1.80;;;;;;;29.29;45.34;99214.72;4897986;29;20033;-71
2023/07/20 10:45:41;;;;;;;3.80;1.83;;;;;;;29.30;45.45;99216.41;4899183;29;20401;-70
2023/07/20 10:48:14;;;;;;;3.97;1.92;;;;;;;29.30;45.24;99211.03;4898992;29;20112;-72
2023/07/20 10:50:41;;;;;;;5.30;1.90;;;;;;;29.33;45.14;99210.69;4888560;29;20035;-71
2023/07/20 10:53:16;;;;;;;2.88;1.95;;;;;;;29.32;44.86;99204.50;4899042;29;20024;-71
2023/07/20 10:55:43;;;;;;;3.60;1.80;;;;;;;29.35;45.27;99203.34;4898785;29;20040;-71
2023/07/20 10:58:17;;;;;;;3.60;1.50;;;;;;;29.35;45.34;99204.19;4899039;29;20116;-71
2023/07/20 11:01:00;;;;;;;3.60;1.60;;;;;;;29.37;45.27;99195.97;4898910;29;20393;-70
2023/07/20 11:03:33;;;;;;;3.00;1.88;;;;;;;29.38;45.22;99199.50;4890996;29;20088;-70
2023/07/20 11:05:59;;;;;;;3.17;1.80;;;;;;;29.39;45.01;99202.03;4893586;29;20043;-71
2023/07/20 11:08:43;;;;;;;2.83;1.67;;;;;;;29.40;45.16;99190.28;4898942;29;20124;-70
2023/07/20 11:11:29;;;;;;;3.42;2.03;;;;;;;29.42;44.89;99196.34;4898790;29;20115;-70
2023/07/20 11:14:08;;;;;;;2.97;1.63;;;;;;;29.43;45.07;99183.72;4894958;29;20024;-70
2023/07/20 11:16:34;;;;;;;3.25;1.90;;;;;;;29.43;45.12;99179.22;4898599;29;20154;-71
2023/07/20 11:18:59;;;;;;;2.83;1.50;;;;;;;29.45;44.95;99177.22;4898654;29;20036;-71
2023/07/20 11:21:25;;;;;;;3.47;2.03;;;;;;;29.46;45.00;99173.53;4898138;29;20033;-72
2023/07/20 11:23:53;;;;;;;3.38;1.90;;;;;;;29.48;45.23;99174.25;4897934;29;20231;-72
2023/07/20 11:26:19;;;;;;;5.22;1.85;;;;;;;29.50;44.92;99173.25;4890144;29;20412;-69
2023/07/20 11:28:52;;;;;;;3.10;1.77;;;;;;;29.51;45.14;99158.78;4897702;29;20126;-71
2023/07/20 11:31:18;;;;;;;3.35;1.70;;;;;;;29.52;45.14;99163.16;4894310;29;20044;-70
2023/07/20 11:33:44;;;;;;;3.13;1.60;;;;;;;29.53;44.90;99156.81;4896153;29;20032;-73